Terminal Aerodrome Forecast
Issued by NWS

Home | Current Version | Previous Version | Text Only | Print | Product List | Glossary On
Versions: 1 2 3 4 5 6 7 8 9 10 11 12 13 14 15 16
000
FTUS44 KLIX 291734
TAFHUM
TAF
KHUM 291734Z 2918/3018 17009G24KT P6SM VCTS SCT018CB BKN020
      TEMPO 2920/2924 2SM TSRA BKN025CB
     FM300200 08007KT P6SM SCT090 BKN250
     FM301500 10008KT P6SM SCT040 SCT250=

USA.gov is the U.S. government's official web portal to all federal, state and local government web resources and services.